createdAt,value
2022-10-18T00:00:08.000Z,95.89
2022-10-18T00:01:08.000Z,95.68
2022-10-18T00:02:08.000Z,94.98
2022-10-18T00:03:08.000Z,94.17
2022-10-18T00:04:08.000Z,93.86
2022-10-18T00:05:08.000Z,93.96
2022-10-18T00:06:08.000Z,93.76
2022-10-18T00:07:08.000Z,93.76
2022-10-18T00:08:08.000Z,93.86
2022-10-18T00:09:08.000Z,94.21
2022-10-18T00:10:08.000Z,94.31
2022-10-18T00:11:08.000Z,94.41
2022-10-18T00:12:08.000Z,94.21
2022-10-18T00:13:08.000Z,94.10
2022-10-18T00:14:08.000Z,94.00
2022-10-18T00:15:08.000Z,94.82
2022-10-18T00:16:08.000Z,95.42
2022-10-18T00:17:08.000Z,96.34
2022-10-18T00:18:08.000Z,96.75
2022-10-18T00:19:08.000Z,96.70
2022-10-18T00:20:08.000Z,96.54
2022-10-18T00:21:08.000Z,96.23
2022-10-18T00:22:08.000Z,96.23
2022-10-18T00:23:08.000Z,96.64
2022-10-18T00:24:08.000Z,96.39
2022-10-18T00:25:08.000Z,96.39
2022-10-18T00:26:08.000Z,96.09
2022-10-18T00:27:08.000Z,95.79
2022-10-18T00:28:08.000Z,95.63
2022-10-18T00:29:08.000Z,95.53
2022-10-18T00:30:08.000Z,95.53
2022-10-18T00:31:08.000Z,95.53
2022-10-18T00:32:08.000Z,95.53
2022-10-18T00:33:08.000Z,95.63
2022-10-18T00:34:08.000Z,95.73
2022-10-18T00:35:08.000Z,95.83
2022-10-18T00:36:08.000Z,96.03
2022-10-18T00:37:08.000Z,96.34
2022-10-18T00:38:08.000Z,96.44
2022-10-18T00:39:07.000Z,96.75
2022-10-18T00:40:07.000Z,96.54
2022-10-18T00:41:07.000Z,96.44
2022-10-18T00:42:07.000Z,96.64
2022-10-18T00:43:07.000Z,96.44
2022-10-18T00:44:07.000Z,96.44
2022-10-18T00:45:07.000Z,96.75
2022-10-18T00:46:07.000Z,96.75
2022-10-18T00:47:07.000Z,96.64
2022-10-18T00:48:07.000Z,96.54
2022-10-18T00:49:07.000Z,96.44
2022-10-18T00:50:07.000Z,96.23
2022-10-18T00:51:07.000Z,96.23
2022-10-18T00:52:07.000Z,96.14
2022-10-18T00:53:07.000Z,96.23
2022-10-18T00:54:07.000Z,96.44
2022-10-18T00:55:07.000Z,96.44
2022-10-18T00:56:07.000Z,96.54
2022-10-18T00:57:07.000Z,96.75
2022-10-18T00:58:07.000Z,96.84
2022-10-18T00:59:07.000Z,96.90
2022-10-18T01:00:07.000Z,96.95
2022-10-18T01:01:07.000Z,96.90
2022-10-18T01:02:07.000Z,96.90
2022-10-18T01:03:07.000Z,96.80
2022-10-18T01:04:07.000Z,96.90
2022-10-18T01:05:07.000Z,97.00
2022-10-18T01:06:07.000Z,97.05
2022-10-18T01:07:07.000Z,96.95
2022-10-18T01:08:07.000Z,96.80
2022-10-18T01:09:07.000Z,96.70
2022-10-18T01:10:07.000Z,96.64
2022-10-18T01:11:07.000Z,96.39
2022-10-18T01:12:07.000Z,96.44
2022-10-18T01:13:07.000Z,96.44
2022-10-18T01:14:07.000Z,96.19
2022-10-18T01:15:07.000Z,96.34
2022-10-18T01:16:07.000Z,96.23
2022-10-18T01:17:07.000Z,96.23
2022-10-18T01:18:07.000Z,96.14
2022-10-18T01:19:07.000Z,96.14
2022-10-18T01:20:07.000Z,96.14
2022-10-18T01:21:07.000Z,96.44
2022-10-18T01:22:07.000Z,96.64
2022-10-18T01:23:07.000Z,96.64
2022-10-18T01:24:07.000Z,96.54
2022-10-18T01:25:07.000Z,96.34
2022-10-18T01:26:07.000Z,96.23
2022-10-18T01:27:07.000Z,96.23
2022-10-18T01:28:07.000Z,96.14
2022-10-18T01:29:07.000Z,96.14
2022-10-18T01:30:07.000Z,96.03
2022-10-18T01:31:07.000Z,96.03
2022-10-18T01:32:07.000Z,96.14
2022-10-18T01:33:07.000Z,96.14
2022-10-18T01:34:07.000Z,96.34
2022-10-18T01:35:07.000Z,96.75
2022-10-18T01:36:07.000Z,96.44
2022-10-18T01:37:07.000Z,96.54
2022-10-18T01:38:07.000Z,96.64
2022-10-18T01:39:07.000Z,96.54
2022-10-18T01:40:07.000Z,96.54
2022-10-18T01:41:07.000Z,96.64
2022-10-18T01:42:07.000Z,96.64
2022-10-18T01:43:07.000Z,96.75
2022-10-18T01:44:07.000Z,96.75
2022-10-18T01:45:07.000Z,96.54
2022-10-18T01:46:07.000Z,96.54
2022-10-18T01:47:07.000Z,96.75
2022-10-18T01:48:07.000Z,96.64
2022-10-18T01:49:07.000Z,96.64
2022-10-18T01:50:07.000Z,96.64
2022-10-18T01:51:06.000Z,96.64
2022-10-18T01:52:06.000Z,96.75
2022-10-18T01:53:06.000Z,96.84
2022-10-18T01:54:06.000Z,96.95
2022-10-18T01:55:06.000Z,96.84
2022-10-18T01:56:06.000Z,96.64
2022-10-18T01:57:06.000Z,96.75
2022-10-18T01:58:06.000Z,96.95
2022-10-18T01:59:06.000Z,96.84
2022-10-18T02:00:06.000Z,96.75
2022-10-18T02:01:06.000Z,96.84
2022-10-18T02:02:06.000Z,96.84
2022-10-18T02:03:06.000Z,96.84
2022-10-18T02:04:06.000Z,97.05
2022-10-18T02:05:06.000Z,97.05
2022-10-18T02:06:06.000Z,96.95
2022-10-18T02:07:06.000Z,96.95
2022-10-18T02:08:06.000Z,96.95
2022-10-18T02:09:06.000Z,96.90
2022-10-18T02:10:06.000Z,97.05
2022-10-18T02:11:06.000Z,96.90
2022-10-18T02:12:06.000Z,97.11
2022-10-18T02:13:06.000Z,97.00
2022-10-18T02:14:06.000Z,97.05
2022-10-18T02:15:06.000Z,96.90
2022-10-18T02:16:06.000Z,97.11
2022-10-18T02:17:06.000Z,97.11
2022-10-18T02:18:06.000Z,97.11
2022-10-18T02:19:06.000Z,97.00
2022-10-18T02:20:06.000Z,96.90
2022-10-18T02:21:06.000Z,96.90
2022-10-18T02:22:06.000Z,97.00
2022-10-18T02:23:06.000Z,97.00
2022-10-18T02:24:06.000Z,97.11
2022-10-18T02:25:06.000Z,97.11
2022-10-18T02:26:06.000Z,96.90
2022-10-18T02:27:06.000Z,97.00
2022-10-18T02:28:06.000Z,97.00
2022-10-18T02:29:06.000Z,97.00
2022-10-18T02:30:06.000Z,97.11
2022-10-18T02:31:06.000Z,97.20
2022-10-18T02:32:06.000Z,97.11
2022-10-18T02:33:06.000Z,97.41
2022-10-18T02:34:06.000Z,97.31
2022-10-18T02:35:06.000Z,97.20
2022-10-18T02:36:06.000Z,97.20
2022-10-18T02:37:06.000Z,97.20
2022-10-18T02:38:06.000Z,97.31
2022-10-18T02:39:06.000Z,97.20
2022-10-18T02:40:06.000Z,97.11
2022-10-18T02:41:06.000Z,97.31
2022-10-18T02:42:06.000Z,97.41
2022-10-18T02:43:06.000Z,97.51
2022-10-18T02:44:06.000Z,97.51
2022-10-18T02:45:06.000Z,97.41
2022-10-18T02:46:06.000Z,97.31
2022-10-18T02:47:06.000Z,97.31
2022-10-18T02:48:06.000Z,97.51
2022-10-18T02:49:06.000Z,97.31
2022-10-18T02:50:06.000Z,97.41
2022-10-18T02:51:06.000Z,97.41
2022-10-18T02:52:06.000Z,97.51
2022-10-18T02:53:06.000Z,97.51
2022-10-18T02:54:06.000Z,97.51
2022-10-18T02:55:06.000Z,97.51
2022-10-18T02:56:06.000Z,97.41
2022-10-18T02:57:06.000Z,97.31
2022-10-18T02:58:06.000Z,97.51
2022-10-18T02:59:06.000Z,97.71
2022-10-18T03:00:06.000Z,97.81
2022-10-18T03:01:06.000Z,97.61
2022-10-18T03:02:06.000Z,97.61
2022-10-18T03:03:05.000Z,97.51
2022-10-18T03:04:05.000Z,97.71
2022-10-18T03:05:05.000Z,97.77
2022-10-18T03:06:05.000Z,97.71
2022-10-18T03:07:05.000Z,97.71
2022-10-18T03:08:05.000Z,97.61
2022-10-18T03:09:05.000Z,97.56
2022-10-18T03:10:05.000Z,97.67
2022-10-18T03:11:05.000Z,97.67
2022-10-18T03:12:05.000Z,97.67
2022-10-18T03:13:05.000Z,97.77
2022-10-18T03:14:05.000Z,97.77
2022-10-18T03:15:05.000Z,97.67
2022-10-18T03:16:05.000Z,97.77
2022-10-18T03:17:05.000Z,98.07
2022-10-18T03:18:05.000Z,97.97
2022-10-18T03:19:05.000Z,97.97
2022-10-18T03:20:05.000Z,97.97
2022-10-18T03:21:05.000Z,97.87
2022-10-18T03:22:05.000Z,97.87
2022-10-18T03:23:05.000Z,97.87
2022-10-18T03:24:05.000Z,98.07
2022-10-18T03:25:05.000Z,97.97
2022-10-18T03:26:05.000Z,97.87
2022-10-18T03:27:05.000Z,97.87
2022-10-18T03:28:05.000Z,97.87
2022-10-18T03:29:05.000Z,97.87
2022-10-18T03:30:05.000Z,97.72
2022-10-18T03:31:05.000Z,97.72
2022-10-18T03:32:05.000Z,97.62
2022-10-18T03:33:05.000Z,97.72
2022-10-18T03:34:05.000Z,97.72
2022-10-18T03:35:05.000Z,97.62
2022-10-18T03:36:05.000Z,97.72
2022-10-18T03:37:05.000Z,97.62
2022-10-18T03:38:05.000Z,97.62
2022-10-18T03:39:05.000Z,97.52
2022-10-18T03:40:05.000Z,97.42
2022-10-18T03:41:05.000Z,97.32
2022-10-18T03:42:05.000Z,97.22
2022-10-18T03:43:05.000Z,97.22
2022-10-18T03:44:05.000Z,97.11
2022-10-18T03:45:05.000Z,97.22
2022-10-18T03:46:05.000Z,97.22
2022-10-18T03:47:05.000Z,97.42
2022-10-18T03:48:05.000Z,97.52
2022-10-18T03:49:05.000Z,97.62
2022-10-18T03:50:05.000Z,97.62
2022-10-18T03:51:05.000Z,97.52
2022-10-18T03:52:05.000Z,97.62
2022-10-18T03:53:05.000Z,97.62
2022-10-18T03:54:05.000Z,97.62
2022-10-18T03:55:05.000Z,97.52
2022-10-18T03:56:05.000Z,97.42
2022-10-18T03:57:05.000Z,97.42
2022-10-18T03:58:05.000Z,97.42
2022-10-18T03:59:05.000Z,97.42
2022-10-18T04:00:05.000Z,97.38
2022-10-18T04:01:05.000Z,97.38
2022-10-18T04:02:05.000Z,97.38
2022-10-18T04:03:05.000Z,97.38
2022-10-18T04:04:05.000Z,97.38
2022-10-18T04:05:05.000Z,97.27
2022-10-18T04:06:05.000Z,97.17
2022-10-18T04:07:05.000Z,97.07
2022-10-18T04:08:05.000Z,96.97
2022-10-18T04:09:05.000Z,96.97
2022-10-18T04:10:05.000Z,96.87
2022-10-18T04:11:05.000Z,96.87
2022-10-18T04:12:05.000Z,96.87
2022-10-18T04:13:05.000Z,96.97
2022-10-18T04:14:05.000Z,97.07
2022-10-18T04:15:04.000Z,97.07
2022-10-18T04:16:04.000Z,97.17
2022-10-18T04:17:04.000Z,97.17
2022-10-18T04:18:04.000Z,97.27
2022-10-18T04:19:04.000Z,97.17
2022-10-18T04:20:04.000Z,97.17
2022-10-18T04:21:04.000Z,97.07
2022-10-18T04:22:04.000Z,97.17
2022-10-18T04:23:04.000Z,97.07
2022-10-18T04:24:04.000Z,96.97
2022-10-18T04:25:04.000Z,97.07
2022-10-18T04:26:04.000Z,97.17
2022-10-18T04:27:04.000Z,97.07
2022-10-18T04:28:04.000Z,97.07
2022-10-18T04:29:04.000Z,96.97
2022-10-18T04:30:04.000Z,96.87
2022-10-18T04:31:04.000Z,96.87
2022-10-18T04:32:04.000Z,96.97
2022-10-18T04:33:04.000Z,96.87
2022-10-18T04:34:04.000Z,96.97
2022-10-18T04:35:04.000Z,96.87
2022-10-18T04:36:04.000Z,96.77
2022-10-18T04:37:04.000Z,96.66
2022-10-18T04:38:04.000Z,96.77
2022-10-18T04:39:04.000Z,96.77
2022-10-18T04:40:04.000Z,96.87
2022-10-18T04:41:04.000Z,96.97
2022-10-18T04:42:04.000Z,97.07
2022-10-18T04:43:04.000Z,97.07
2022-10-18T04:44:04.000Z,97.07
2022-10-18T04:45:04.000Z,97.07
2022-10-18T04:46:04.000Z,97.17
2022-10-18T04:47:04.000Z,97.17
2022-10-18T04:48:04.000Z,97.17
2022-10-18T04:49:04.000Z,97.17
2022-10-18T04:50:04.000Z,97.27
2022-10-18T04:51:04.000Z,97.17
2022-10-18T04:52:04.000Z,97.17
2022-10-18T04:53:04.000Z,97.07
2022-10-18T04:54:04.000Z,97.27
2022-10-18T04:55:04.000Z,97.17
2022-10-18T04:56:04.000Z,97.07
2022-10-18T04:57:04.000Z,97.27
2022-10-18T04:58:04.000Z,97.27
2022-10-18T04:59:04.000Z,97.17
2022-10-18T05:00:04.000Z,97.17
2022-10-18T05:01:04.000Z,97.23
2022-10-18T05:02:04.000Z,97.38
2022-10-18T05:03:04.000Z,97.27
2022-10-18T05:04:04.000Z,97.27
2022-10-18T05:05:04.000Z,97.27
2022-10-18T05:06:04.000Z,97.17
2022-10-18T05:07:04.000Z,97.07
2022-10-18T05:08:04.000Z,96.97
2022-10-18T05:09:04.000Z,96.82
2022-10-18T05:10:04.000Z,96.87
2022-10-18T05:11:04.000Z,96.77
2022-10-18T05:12:04.000Z,96.66
2022-10-18T05:13:04.000Z,96.62
2022-10-18T05:14:04.000Z,96.82
2022-10-18T05:15:04.000Z,97.02
2022-10-18T05:16:04.000Z,97.13
2022-10-18T05:17:04.000Z,97.02
2022-10-18T05:18:04.000Z,97.02
2022-10-18T05:19:04.000Z,96.92
2022-10-18T05:20:04.000Z,96.92
2022-10-18T05:21:04.000Z,96.82
2022-10-18T05:22:04.000Z,96.82
2022-10-18T05:23:04.000Z,96.92
2022-10-18T05:24:04.000Z,96.92
2022-10-18T05:25:04.000Z,97.13
2022-10-18T05:26:03.000Z,97.13
2022-10-18T05:27:03.000Z,96.92
2022-10-18T05:28:03.000Z,96.92
2022-10-18T05:29:03.000Z,96.82
2022-10-18T05:30:03.000Z,96.82
2022-10-18T05:31:03.000Z,96.72
2022-10-18T05:32:03.000Z,96.62
2022-10-18T05:33:03.000Z,96.72
2022-10-18T05:34:03.000Z,96.82
2022-10-18T05:35:03.000Z,96.92
2022-10-18T05:36:03.000Z,97.13
2022-10-18T05:37:03.000Z,97.23
2022-10-18T05:38:03.000Z,97.33
2022-10-18T05:39:03.000Z,97.43
2022-10-18T05:40:03.000Z,97.63
2022-10-18T05:41:03.000Z,97.63
2022-10-18T05:42:03.000Z,97.63
2022-10-18T05:43:03.000Z,97.63
2022-10-18T05:44:03.000Z,97.73
2022-10-18T05:45:03.000Z,97.83
2022-10-18T05:46:03.000Z,98.03
2022-10-18T05:47:03.000Z,98.24
2022-10-18T05:48:03.000Z,98.24
2022-10-18T05:49:03.000Z,98.24
2022-10-18T05:50:03.000Z,98.24
2022-10-18T05:51:03.000Z,98.24
2022-10-18T05:52:03.000Z,98.24
2022-10-18T05:53:03.000Z,98.34
2022-10-18T05:54:03.000Z,98.54
2022-10-18T05:55:03.000Z,98.54
2022-10-18T05:56:03.000Z,98.54
2022-10-18T05:57:03.000Z,98.65
2022-10-18T05:58:03.000Z,98.74
2022-10-18T05:59:03.000Z,98.74
2022-10-18T06:00:03.000Z,98.85
2022-10-18T06:01:03.000Z,98.95
2022-10-18T06:02:03.000Z,98.85
2022-10-18T06:03:03.000Z,98.85
2022-10-18T06:04:03.000Z,98.85
2022-10-18T06:05:03.000Z,98.95
2022-10-18T06:06:03.000Z,98.95
2022-10-18T06:07:03.000Z,99.05
2022-10-18T06:08:03.000Z,99.25
2022-10-18T06:09:03.000Z,99.35
2022-10-18T06:10:03.000Z,99.35
2022-10-18T06:11:03.000Z,99.35
2022-10-18T06:12:03.000Z,99.35
2022-10-18T06:13:03.000Z,99.35
2022-10-18T06:14:03.000Z,99.35
2022-10-18T06:15:03.000Z,99.35
2022-10-18T06:16:03.000Z,99.35
2022-10-18T06:17:03.000Z,99.35
2022-10-18T06:18:03.000Z,99.30
2022-10-18T06:19:03.000Z,99.51
2022-10-18T06:20:03.000Z,99.66
2022-10-18T06:21:03.000Z,99.61
2022-10-18T06:22:03.000Z,99.71
2022-10-18T06:23:03.000Z,99.91
2022-10-18T06:24:03.000Z,99.91
2022-10-18T06:25:03.000Z,99.99
2022-10-18T06:26:03.000Z,99.99
2022-10-18T06:27:03.000Z,99.99
2022-10-18T06:28:03.000Z,99.99
2022-10-18T06:29:03.000Z,99.99
2022-10-18T06:30:03.000Z,99.99
2022-10-18T06:31:03.000Z,99.99
2022-10-18T06:32:03.000Z,99.99
2022-10-18T06:33:03.000Z,99.99
2022-10-18T06:34:03.000Z,99.99
2022-10-18T06:35:03.000Z,99.99
2022-10-18T06:36:03.000Z,99.99
2022-10-18T06:37:03.000Z,99.99
2022-10-18T06:38:02.000Z,99.99
2022-10-18T06:39:02.000Z,99.99
2022-10-18T06:40:02.000Z,99.99
2022-10-18T06:41:02.000Z,99.99
2022-10-18T06:42:02.000Z,99.99
2022-10-18T06:43:02.000Z,99.99
2022-10-18T06:44:02.000Z,99.99
2022-10-18T06:45:02.000Z,99.99
2022-10-18T06:46:02.000Z,99.99
2022-10-18T06:47:02.000Z,99.99
2022-10-18T06:48:02.000Z,99.99
2022-10-18T06:49:02.000Z,99.99
2022-10-18T06:49:02.000Z,99.99
2022-10-18T06:50:02.000Z,99.99
2022-10-18T06:50:02.000Z,99.99
2022-10-18T06:51:02.000Z,99.99
2022-10-18T06:51:02.000Z,99.99
2022-10-18T06:52:02.000Z,99.99
2022-10-18T06:52:02.000Z,99.99
2022-10-18T06:53:02.000Z,99.99
2022-10-18T06:53:02.000Z,99.99
2022-10-18T06:54:02.000Z,99.99
2022-10-18T06:55:02.000Z,99.99
2022-10-18T06:56:02.000Z,99.99
2022-10-18T06:57:02.000Z,99.99
2022-10-18T06:58:02.000Z,99.99
2022-10-18T06:59:02.000Z,99.99
2022-10-18T07:00:02.000Z,99.99
2022-10-18T07:01:02.000Z,99.99
2022-10-18T07:02:02.000Z,99.99
2022-10-18T07:03:02.000Z,99.99
2022-10-18T07:04:02.000Z,99.99
2022-10-18T07:05:02.000Z,99.99
2022-10-18T07:06:02.000Z,99.99
2022-10-18T07:07:02.000Z,99.99
2022-10-18T07:08:02.000Z,99.99
2022-10-18T07:09:02.000Z,99.99
2022-10-18T07:09:02.000Z,99.99
2022-10-18T07:10:02.000Z,99.99
2022-10-18T07:10:02.000Z,99.99
2022-10-18T07:11:02.000Z,99.99
2022-10-18T07:11:02.000Z,99.99
2022-10-18T07:12:02.000Z,99.99
2022-10-18T07:12:02.000Z,99.99
2022-10-18T07:13:02.000Z,99.99
2022-10-18T07:13:02.000Z,99.99
2022-10-18T07:14:02.000Z,99.99
2022-10-18T07:15:02.000Z,99.99
2022-10-18T07:16:02.000Z,99.99
2022-10-18T07:17:02.000Z,99.99
2022-10-18T07:18:02.000Z,99.99
2022-10-18T07:19:02.000Z,99.99
2022-10-18T07:20:02.000Z,99.99
2022-10-18T07:21:02.000Z,99.99
2022-10-18T07:22:02.000Z,99.99
2022-10-18T07:23:02.000Z,99.99
2022-10-18T07:24:02.000Z,99.99
2022-10-18T07:25:02.000Z,99.99
2022-10-18T07:26:02.000Z,99.99
2022-10-18T07:27:02.000Z,99.99
2022-10-18T07:28:02.000Z,99.99
2022-10-18T07:29:02.000Z,99.99
2022-10-18T07:30:02.000Z,99.99
2022-10-18T07:31:02.000Z,99.99
2022-10-18T07:32:02.000Z,99.99
2022-10-18T07:33:02.000Z,99.99
2022-10-18T07:34:02.000Z,99.99
2022-10-18T07:35:02.000Z,99.99
2022-10-18T07:36:02.000Z,99.99
2022-10-18T07:37:02.000Z,99.99
2022-10-18T07:38:02.000Z,99.99
2022-10-18T07:39:02.000Z,99.99
2022-10-18T07:40:02.000Z,99.99
2022-10-18T07:41:02.000Z,99.99
2022-10-18T07:42:02.000Z,99.99
2022-10-18T07:43:02.000Z,99.99
2022-10-18T07:44:02.000Z,99.99
2022-10-18T07:45:02.000Z,99.99
2022-10-18T07:46:02.000Z,99.99
2022-10-18T07:47:02.000Z,99.99
2022-10-18T07:48:02.000Z,99.99
2022-10-18T07:49:02.000Z,99.99
2022-10-18T07:50:01.000Z,99.99
2022-10-18T07:51:01.000Z,99.99
2022-10-18T07:52:01.000Z,99.99
2022-10-18T07:53:01.000Z,99.99
2022-10-18T07:54:01.000Z,99.99
2022-10-18T07:55:01.000Z,99.99
2022-10-18T07:56:01.000Z,99.99
2022-10-18T07:57:01.000Z,99.99
2022-10-18T07:58:01.000Z,99.99
2022-10-18T08:05:19.000Z,99.99
2022-10-18T08:05:19.000Z,99.99
2022-10-18T08:06:19.000Z,99.99
2022-10-18T08:07:19.000Z,99.99
2022-10-18T08:08:19.000Z,99.99
2022-10-18T08:09:19.000Z,99.99
2022-10-18T08:10:19.000Z,99.99
2022-10-18T08:11:19.000Z,99.99
2022-10-18T08:12:19.000Z,99.99
2022-10-18T08:13:19.000Z,99.99
2022-10-18T08:14:19.000Z,99.99
2022-10-18T08:15:19.000Z,99.99
2022-10-18T08:16:19.000Z,99.99
2022-10-18T08:17:19.000Z,99.99
2022-10-18T08:18:19.000Z,99.99
2022-10-18T08:19:19.000Z,99.99
2022-10-18T08:20:19.000Z,99.99
2022-10-18T08:21:19.000Z,99.99
2022-10-18T08:22:19.000Z,99.99
2022-10-18T08:23:19.000Z,99.99
2022-10-18T08:24:19.000Z,99.99
2022-10-18T08:25:19.000Z,99.99
2022-10-18T08:26:19.000Z,99.99
2022-10-18T08:27:19.000Z,99.99
2022-10-18T08:28:19.000Z,99.99
2022-10-18T08:29:19.000Z,99.99
2022-10-18T08:30:19.000Z,99.99
2022-10-18T08:31:18.000Z,99.99
2022-10-18T08:32:18.000Z,99.99
2022-10-18T08:33:18.000Z,99.99
2022-10-18T08:34:18.000Z,99.99
2022-10-18T08:35:18.000Z,99.99
2022-10-18T08:36:18.000Z,99.99
2022-10-18T08:37:18.000Z,99.99
2022-10-18T08:38:18.000Z,99.99
2022-10-18T08:39:18.000Z,99.99
2022-10-18T08:40:18.000Z,99.99
2022-10-18T08:41:18.000Z,99.99
2022-10-18T08:42:18.000Z,99.99
2022-10-18T08:43:18.000Z,99.99
2022-10-18T08:44:18.000Z,99.99
2022-10-18T08:45:18.000Z,99.99
2022-10-18T08:46:18.000Z,99.99
2022-10-18T08:47:18.000Z,99.99
2022-10-18T08:48:18.000Z,99.99
2022-10-18T08:49:18.000Z,99.99
2022-10-18T08:50:18.000Z,99.99
2022-10-18T08:51:18.000Z,99.99
2022-10-18T08:52:18.000Z,99.99
2022-10-18T08:53:18.000Z,99.99
2022-10-18T08:54:18.000Z,99.99
2022-10-18T08:55:18.000Z,99.99
2022-10-18T08:56:18.000Z,99.99
2022-10-18T08:57:18.000Z,99.99
2022-10-18T08:58:18.000Z,99.99
2022-10-18T08:59:18.000Z,99.99
2022-10-18T09:00:18.000Z,99.99
2022-10-18T09:01:18.000Z,99.99
2022-10-18T09:02:18.000Z,99.99
2022-10-18T09:03:18.000Z,99.99
2022-10-18T09:04:18.000Z,99.99
2022-10-18T09:05:18.000Z,99.99
2022-10-18T09:06:18.000Z,99.99
2022-10-18T09:07:18.000Z,99.99
2022-10-18T09:08:18.000Z,99.99
2022-10-18T09:09:18.000Z,99.99
2022-10-18T09:10:18.000Z,99.99
2022-10-18T09:11:18.000Z,99.99
2022-10-18T09:12:18.000Z,99.99
2022-10-18T09:13:18.000Z,99.99
2022-10-18T09:14:18.000Z,99.99
2022-10-18T09:15:18.000Z,99.99
2022-10-18T09:16:18.000Z,99.99
2022-10-18T09:17:18.000Z,99.99
2022-10-18T09:18:18.000Z,99.99
2022-10-18T09:19:18.000Z,99.99
2022-10-18T09:20:18.000Z,99.99
2022-10-18T09:21:18.000Z,99.99
2022-10-18T09:22:18.000Z,99.99
2022-10-18T09:23:18.000Z,99.99
2022-10-18T09:24:18.000Z,99.99
2022-10-18T09:25:18.000Z,99.99
2022-10-18T09:26:18.000Z,99.99
2022-10-18T09:27:18.000Z,99.99
2022-10-18T09:28:18.000Z,99.99
2022-10-18T09:29:18.000Z,99.99
2022-10-18T09:30:18.000Z,99.99
2022-10-18T09:31:18.000Z,99.99
2022-10-18T09:32:18.000Z,99.99
2022-10-18T09:33:18.000Z,99.99
2022-10-18T09:34:18.000Z,99.99
2022-10-18T09:35:18.000Z,99.99
2022-10-18T09:36:18.000Z,99.99
2022-10-18T09:37:18.000Z,99.99
2022-10-18T09:38:18.000Z,99.99
2022-10-18T09:39:18.000Z,99.99
2022-10-18T09:40:18.000Z,99.99
2022-10-18T09:41:18.000Z,99.99
2022-10-18T09:42:18.000Z,99.99
2022-10-18T09:43:17.000Z,99.99
2022-10-18T09:44:17.000Z,99.99
2022-10-18T09:45:17.000Z,99.99
2022-10-18T09:46:17.000Z,99.99
2022-10-18T09:47:17.000Z,99.99
2022-10-18T09:48:17.000Z,99.99
2022-10-18T09:49:17.000Z,99.99
2022-10-18T09:50:17.000Z,99.99
2022-10-18T09:51:17.000Z,99.99
2022-10-18T09:52:17.000Z,99.99
2022-10-18T09:53:17.000Z,99.99
2022-10-18T09:54:17.000Z,99.99
2022-10-18T09:55:17.000Z,99.99
2022-10-18T09:56:17.000Z,99.99
2022-10-18T09:57:17.000Z,99.99
2022-10-18T09:58:17.000Z,99.99
2022-10-18T09:59:17.000Z,99.99
2022-10-18T10:00:17.000Z,99.99
2022-10-18T10:01:17.000Z,99.99
2022-10-18T10:02:17.000Z,99.99
2022-10-18T10:03:17.000Z,99.99
2022-10-18T10:04:17.000Z,99.99
2022-10-18T10:05:17.000Z,99.99
2022-10-18T10:06:17.000Z,99.99
2022-10-18T10:07:17.000Z,99.99
2022-10-18T10:08:17.000Z,99.99
2022-10-18T10:09:17.000Z,99.99
2022-10-18T10:10:17.000Z,99.99
2022-10-18T10:11:17.000Z,99.99
2022-10-18T10:12:17.000Z,99.99
2022-10-18T10:13:17.000Z,99.99
2022-10-18T10:14:17.000Z,99.99
2022-10-18T10:15:17.000Z,99.99
2022-10-18T10:16:17.000Z,99.99
2022-10-18T10:17:17.000Z,99.99
2022-10-18T10:18:17.000Z,99.99
2022-10-18T10:19:17.000Z,99.99
2022-10-18T10:19:17.000Z,99.99
2022-10-18T10:20:17.000Z,99.99
2022-10-18T10:20:17.000Z,99.99
2022-10-18T10:21:17.000Z,99.99
2022-10-18T10:21:17.000Z,99.99
2022-10-18T10:22:17.000Z,99.99
2022-10-18T10:22:17.000Z,99.99
2022-10-18T10:23:17.000Z,99.99
2022-10-18T10:23:17.000Z,99.99
2022-10-18T10:24:17.000Z,99.99
2022-10-18T10:25:17.000Z,99.99
2022-10-18T10:26:17.000Z,99.99
2022-10-18T10:27:17.000Z,99.99
2022-10-18T10:28:17.000Z,99.99
2022-10-18T10:29:17.000Z,99.99
2022-10-18T10:30:17.000Z,99.99
2022-10-18T10:31:17.000Z,99.99
2022-10-18T10:32:17.000Z,99.99
2022-10-18T10:33:17.000Z,99.99
2022-10-18T10:34:17.000Z,99.99
2022-10-18T10:35:17.000Z,99.99
2022-10-18T10:36:17.000Z,99.99
2022-10-18T10:37:17.000Z,99.99
2022-10-18T10:38:17.000Z,99.99
2022-10-18T10:39:17.000Z,99.99
2022-10-18T10:40:17.000Z,99.99
2022-10-18T10:41:17.000Z,99.99
2022-10-18T10:42:17.000Z,99.99
2022-10-18T10:43:17.000Z,99.99
2022-10-18T10:44:17.000Z,99.99
2022-10-18T10:45:17.000Z,99.99
2022-10-18T10:46:17.000Z,99.99
2022-10-18T10:47:17.000Z,99.99
2022-10-18T10:48:17.000Z,99.99
2022-10-18T10:49:17.000Z,99.99
2022-10-18T10:50:17.000Z,99.99
2022-10-18T10:51:17.000Z,99.99
2022-10-18T10:52:16.000Z,99.99
2022-10-18T10:53:16.000Z,99.99
2022-10-18T10:54:16.000Z,99.99
2022-10-18T10:55:16.000Z,99.99
2022-10-18T10:56:16.000Z,99.99
2022-10-18T10:57:16.000Z,99.99
2022-10-18T10:58:16.000Z,99.99
2022-10-18T10:59:16.000Z,99.99
2022-10-18T11:00:16.000Z,99.99
2022-10-18T11:01:16.000Z,99.99
2022-10-18T11:02:16.000Z,99.99
2022-10-18T11:03:16.000Z,99.99
2022-10-18T11:04:16.000Z,99.99
2022-10-18T11:05:16.000Z,99.99
2022-10-18T11:06:16.000Z,99.99
2022-10-18T11:07:16.000Z,99.99
2022-10-18T11:08:16.000Z,99.99
2022-10-18T11:09:16.000Z,99.99
2022-10-18T11:10:16.000Z,99.99
2022-10-18T11:11:16.000Z,99.99
2022-10-18T11:12:16.000Z,99.99
2022-10-18T11:13:16.000Z,99.99
2022-10-18T11:14:16.000Z,99.99
2022-10-18T11:15:16.000Z,99.99
2022-10-18T11:16:16.000Z,99.99
2022-10-18T11:17:16.000Z,99.99
2022-10-18T11:18:16.000Z,99.99
2022-10-18T11:19:16.000Z,99.99
2022-10-18T11:20:16.000Z,99.99
2022-10-18T11:21:16.000Z,99.99
2022-10-18T11:22:16.000Z,99.99
2022-10-18T11:23:16.000Z,99.99
2022-10-18T11:24:16.000Z,99.99
2022-10-18T11:25:16.000Z,99.99
2022-10-18T11:26:16.000Z,99.99
2022-10-18T11:27:16.000Z,99.99
2022-10-18T11:28:16.000Z,99.99
2022-10-18T11:29:16.000Z,99.99
2022-10-18T11:30:16.000Z,99.99
2022-10-18T11:31:16.000Z,99.99
2022-10-18T11:32:16.000Z,99.99
2022-10-18T11:33:16.000Z,99.99
2022-10-18T11:34:16.000Z,99.99
2022-10-18T11:35:16.000Z,99.99
2022-10-18T11:36:16.000Z,99.99
2022-10-18T11:37:16.000Z,99.99
2022-10-18T11:38:16.000Z,99.99
2022-10-18T11:39:16.000Z,99.99
2022-10-18T11:40:16.000Z,99.99
2022-10-18T11:41:16.000Z,99.99
2022-10-18T11:42:16.000Z,99.99
2022-10-18T11:43:16.000Z,99.99
2022-10-18T11:44:16.000Z,99.99
2022-10-18T11:45:16.000Z,99.99
2022-10-18T11:46:16.000Z,99.99
2022-10-18T11:47:16.000Z,99.99
2022-10-18T11:48:16.000Z,99.99
2022-10-18T11:49:16.000Z,99.99
2022-10-18T11:50:16.000Z,99.99
2022-10-18T11:51:16.000Z,99.99
2022-10-18T11:52:16.000Z,99.99
2022-10-18T11:53:16.000Z,99.99
2022-10-18T11:54:16.000Z,99.99
2022-10-18T11:55:16.000Z,99.99
2022-10-18T11:56:16.000Z,99.99
2022-10-18T11:57:16.000Z,99.99
2022-10-18T11:58:16.000Z,99.99
2022-10-18T11:59:16.000Z,99.99
2022-10-18T12:00:16.000Z,99.99
2022-10-18T12:01:16.000Z,99.99
2022-10-18T12:02:16.000Z,99.99
2022-10-18T12:03:15.000Z,99.99
2022-10-18T12:04:15.000Z,99.99
2022-10-18T12:05:15.000Z,99.99
2022-10-18T12:06:15.000Z,99.99
2022-10-18T12:07:15.000Z,99.99
2022-10-18T12:08:15.000Z,99.99
2022-10-18T12:09:15.000Z,99.99
2022-10-18T12:10:15.000Z,99.99
2022-10-18T12:11:15.000Z,99.99
2022-10-18T12:12:15.000Z,99.99
2022-10-18T12:13:15.000Z,99.99
2022-10-18T12:14:15.000Z,99.99
2022-10-18T12:15:15.000Z,99.99
2022-10-18T12:16:15.000Z,99.99
2022-10-18T12:17:15.000Z,99.99
2022-10-18T12:18:15.000Z,99.99
2022-10-18T12:19:15.000Z,99.99
2022-10-18T12:20:15.000Z,99.99
2022-10-18T12:21:15.000Z,99.99
2022-10-18T12:22:15.000Z,99.99
2022-10-18T12:23:15.000Z,99.99
2022-10-18T12:24:15.000Z,99.99
2022-10-18T12:25:15.000Z,99.99
2022-10-18T12:26:15.000Z,99.99
2022-10-18T12:27:15.000Z,99.99
2022-10-18T12:28:15.000Z,99.99
2022-10-18T12:29:15.000Z,99.99
2022-10-18T12:30:15.000Z,99.99
2022-10-18T12:31:15.000Z,99.99
2022-10-18T12:32:15.000Z,99.99
2022-10-18T12:33:15.000Z,99.99
2022-10-18T12:34:15.000Z,99.99
2022-10-18T12:34:15.000Z,99.99
2022-10-18T12:35:15.000Z,99.99
2022-10-18T12:35:15.000Z,99.99
2022-10-18T12:36:15.000Z,99.99
2022-10-18T12:36:15.000Z,99.99
2022-10-18T12:37:15.000Z,99.99
2022-10-18T12:37:15.000Z,99.99
2022-10-18T12:38:15.000Z,99.99